KHPT

Details ICAO KHPT
Name HAMPTON MUNI
Region United States
Timezone America/Chicago (UTC-5.0)
Plans Departing 1
Arriving 0
Stats Elevation 1,176 ft / 358 m (AMSL)
Location 42.723725° -93.226333°
Runways 1
Magnetic Variation 0.367° E
Sunrise 2018-05-20 10:47:05 UTC / 2018-05-20 05:47:05 Local
Sunset 2018-05-21 01:34:40 UTC / 2018-05-20 20:34:40 Local
Advertisement - Login to hide

Runways

ID Width Length Bearing (true) Bearing (mag) Surface Threshold Offset Overrun Length
17 75 ft / 23 m 4,004 ft / 1,220 m 180.40° 180.03° Concrete 0 ft / 0 m 0 ft / 0 m
35 75 ft / 23 m 4,004 ft / 1,220 m 0.40° 0.03° Concrete 0 ft / 0 m 0 ft / 0 m

Map

Weather


0- 5 10 15 20 25 30 35+ Temperature / ° C

Clouds and Precipitation
Forecast for 2018-05-20 18:00 UTC. Updated an hour ago

Ground ~20,000 ft ~40,000 ft Winds

METAR

KHPT 201555Z AUTO 06010KT 10SM OVC005 11/11 A3016 RMK AO2

TAF

Not found

Frequencies

Unicom 122.70 MHz CTAF/UNICOM
Warning: Do not use this data for real-world aviation or navigation. No guarantee of current accuracy is given.